Time,TemperatureF,DewpointF,PressureIn,WindDirection,WindDirectionDegrees,WindSpeedMPH,WindSpeedGustMPH,Humidity,HourlyPrecipIn,Conditions,Clouds,dailyrainin,SoftwareType,DateUTC
2013-01-24 00:03:00,35.2,33.7,30.19,North,356,0.0,0.0,94,0.00,,,0.00,VWS V13.01,2013-01-24 06:03:00,
2013-01-24 00:08:00,35.2,33.9,30.19,North,356,0.0,0.0,95,0.00,,,0.00,VWS V13.01,2013-01-24 06:08:00,
2013-01-24 00:13:00,35.2,33.9,30.19,North,356,0.0,0.0,95,0.00,,,0.00,VWS V13.01,2013-01-24 06:13:00,
2013-01-24 00:18:00,35.4,33.8,30.19,North,356,0.0,0.0,94,0.00,,,0.00,VWS V13.01,2013-01-24 06:18:00,
2013-01-24 00:23:00,35.4,33.8,30.19,North,356,0.0,0.0,94,0.00,,,0.00,VWS V13.01,2013-01-24 06:23:00,
2013-01-24 00:28:00,35.6,34.0,30.19,North,356,0.0,0.0,94,0.00,,,0.00,VWS V13.01,2013-01-24 06:28:00,
2013-01-24 00:33:00,35.6,34.0,30.19,North,356,0.0,0.0,94,0.00,,,0.00,VWS V13.01,2013-01-24 06:33:00,
2013-01-24 00:38:00,35.8,34.5,30.19,NW,308,0.0,0.0,95,0.00,,,0.00,VWS V13.01,2013-01-24 06:38:00,
2013-01-24 00:43:00,35.9,34.7,30.19,NW,308,0.0,0.0,95,0.00,,,0.00,VWS V13.01,2013-01-24 06:43:00,
2013-01-24 00:48:00,36.1,34.8,30.19,NW,308,0.0,0.0,95,0.00,,,0.00,VWS V13.01,2013-01-24 06:48:00,
2013-01-24 00:53:00,36.1,34.8,30.19,NW,308,0.0,0.0,95,0.00,,,0.00,VWS V13.01,2013-01-24 06:53:00,
2013-01-24 00:58:00,36.1,34.6,30.19,NE,41,0.0,0.0,94,0.00,,,0.00,VWS V13.01,2013-01-24 06:58:00,
2013-01-24 01:03:00,36.1,34.6,30.19,NE,41,0.0,0.0,94,0.00,,,0.00,VWS V13.01,2013-01-24 07:03:00,
2013-01-24 01:08:00,36.1,34.6,30.19,NE,42,0.0,0.0,94,0.00,,,0.00,VWS V13.01,2013-01-24 07:08:00,
2013-01-24 01:13:00,36.3,34.7,30.19,NE,42,0.0,0.0,94,0.00,,,0.00,VWS V13.01,2013-01-24 07:13:00,
2013-01-24 01:18:00,36.5,34.9,30.19,WNW,302,0.0,0.0,94,0.00,,,0.00,VWS V13.01,2013-01-24 07:18:00,
2013-01-24 01:23:00,36.5,35.2,30.19,NW,310,0.0,0.0,95,0.00,,,0.00,VWS V13.01,2013-01-24 07:23:00,
2013-01-24 01:28:00,36.5,35.2,30.19,NNW,328,0.0,0.0,95,0.00,,,0.00,VWS V13.01,2013-01-24 07:28:00,
2013-01-24 01:32:00,36.7,35.4,30.19,NW,325,0.0,0.0,95,0.00,,,0.00,VWS V13.01,2013-01-24 07:32:00,
2013-01-24 01:37:00,36.7,35.4,30.19,ENE,68,0.0,0.0,95,0.00,,,0.00,VWS V13.01,2013-01-24 07:37:00,
2013-01-24 01:42:00,36.7,35.4,30.19,ENE,68,0.0,0.0,95,0.00,,,0.00,VWS V13.01,2013-01-24 07:42:00,
2013-01-24 01:47:00,36.7,35.1,30.19,ENE,68,0.0,0.0,94,0.00,,,0.00,VWS V13.01,2013-01-24 07:47:00,
2013-01-24 01:52:00,36.5,34.9,30.19,ENE,68,0.0,0.0,94,0.00,,,0.00,VWS V13.01,2013-01-24 07:52:00,
2013-01-24 01:57:00,36.5,34.9,30.19,ENE,68,0.0,0.0,94,0.00,,,0.00,VWS V13.01,2013-01-24 07:57:00,
2013-01-24 02:02:00,36.5,34.9,30.19,ENE,68,0.0,0.0,94,0.00,,,0.00,VWS V13.01,2013-01-24 08:02:00,
2013-01-24 02:07:00,36.7,35.4,30.19,ENE,68,0.0,0.0,95,0.00,,,0.00,VWS V13.01,2013-01-24 08:07:00,
2013-01-24 02:12:00,36.8,35.5,30.19,NNW,333,0.0,0.0,95,0.00,,,0.00,VWS V13.01,2013-01-24 08:12:00,
2013-01-24 02:17:00,37.0,36.0,30.19,NE,34,0.0,0.0,96,0.00,,,0.00,VWS V13.01,2013-01-24 08:17:00,
2013-01-24 02:22:00,37.2,36.2,30.19,NE,34,0.0,0.0,96,0.00,,,0.00,VWS V13.01,2013-01-24 08:22:00,
2013-01-24 02:27:00,37.6,36.5,30.19,NE,34,0.0,0.0,96,0.00,,,0.00,VWS V13.01,2013-01-24 08:27:00,
2013-01-24 02:33:00,37.7,36.7,30.19,NE,34,0.0,0.0,96,0.00,,,0.00,VWS V13.01,2013-01-24 08:33:00,
2013-01-24 02:37:00,38.1,37.1,30.19,NNW,335,0.0,0.0,96,0.00,,,0.00,VWS V13.01,2013-01-24 08:37:00,
2013-01-24 02:42:00,38.3,37.0,30.19,WNW,301,0.0,0.0,95,0.00,,,0.00,VWS V13.01,2013-01-24 08:42:00,
2013-01-24 02:47:00,38.6,37.3,30.22,East,98,4.0,4.0,95,0.00,,,0.00,VWS V13.01,2013-01-24 08:47:00,
2013-01-24 02:52:00,38.6,37.3,30.22,ESE,103,0.0,0.0,95,0.00,,,0.00,VWS V13.01,2013-01-24 08:52:00,
2013-01-24 02:57:00,38.8,37.5,30.22,ESE,103,0.0,0.0,95,0.00,,,0.00,VWS V13.01,2013-01-24 08:57:00,
2013-01-24 03:02:00,39.0,37.4,30.22,ESE,103,0.0,0.0,94,0.00,,,0.00,VWS V13.01,2013-01-24 09:02:00,
2013-01-24 03:07:00,39.2,37.6,30.22,SW,236,0.0,0.0,94,0.00,,,0.00,VWS V13.01,2013-01-24 09:07:00,
2013-01-24 03:12:00,39.2,37.6,30.22,SSE,166,0.0,0.0,94,0.00,,,0.00,VWS V13.01,2013-01-24 09:12:00,
2013-01-24 03:17:00,39.0,37.2,30.22,SW,228,0.0,0.0,93,0.00,,,0.00,VWS V13.01,2013-01-24 09:17:00,
2013-01-24 03:22:00,39.0,37.2,30.22,WSW,239,0.0,0.0,93,0.00,,,0.00,VWS V13.01,2013-01-24 09:22:00,
2013-01-24 03:27:00,39.2,37.3,30.22,WSW,239,0.0,0.0,93,0.00,,,0.00,VWS V13.01,2013-01-24 09:27:00,
2013-01-24 03:32:00,39.4,37.5,30.22,WSW,239,0.0,0.0,93,0.00,,,0.00,VWS V13.01,2013-01-24 09:32:00,
2013-01-24 03:37:00,39.5,37.7,30.22,West,262,0.0,0.0,93,0.00,,,0.00,VWS V13.01,2013-01-24 09:37:00,
2013-01-24 03:42:00,39.9,38.0,30.22,ENE,63,0.0,0.0,93,0.00,,,0.00,VWS V13.01,2013-01-24 09:42:00,
2013-01-24 03:47:00,40.1,38.0,30.22,NNW,334,0.0,0.0,92,0.00,,,0.00,VWS V13.01,2013-01-24 09:47:00,
2013-01-24 03:52:00,40.3,38.1,30.22,NE,49,0.0,0.0,92,0.00,,,0.00,VWS V13.01,2013-01-24 09:52:00,
2013-01-24 03:57:00,40.3,37.8,30.22,NNW,344,0.0,0.0,91,0.00,,,0.00,VWS V13.01,2013-01-24 09:57:00,
2013-01-24 04:02:00,40.4,38.0,30.22,North,356,0.0,0.0,91,0.00,,,0.00,VWS V13.01,2013-01-24 10:02:00,
2013-01-24 04:07:00,40.4,38.0,30.22,North,356,0.0,0.0,91,0.00,,,0.00,VWS V13.01,2013-01-24 10:07:00,
2013-01-24 04:12:00,40.6,38.2,30.22,NNW,337,0.0,0.0,91,0.00,,,0.00,VWS V13.01,2013-01-24 10:12:00,
2013-01-24 04:17:00,40.8,38.4,30.22,NNW,334,0.0,0.0,91,0.00,,,0.00,VWS V13.01,2013-01-24 10:17:00,
2013-01-24 04:22:00,40.8,38.4,30.22,NNW,334,0.0,0.0,91,0.00,,,0.00,VWS V13.01,2013-01-24 10:22:00,
2013-01-24 04:27:00,41.0,38.6,30.22,NNW,337,0.0,0.0,91,0.00,,,0.00,VWS V13.01,2013-01-24 10:27:00,
2013-01-24 04:32:00,41.5,38.0,30.22,North,8,2.2,2.7,87,0.00,,,0.00,VWS V13.01,2013-01-24 10:32:00,
2013-01-24 04:37:00,41.9,37.4,30.22,NNE,28,0.0,0.0,84,0.00,,,0.00,VWS V13.01,2013-01-24 10:37:00,
2013-01-24 04:42:00,42.2,36.2,30.22,NE,54,2.7,3.1,79,0.00,,,0.00,VWS V13.01,2013-01-24 10:42:00,
2013-01-24 04:47:00,43.1,34.0,30.22,NE,47,3.6,3.6,70,0.00,,,0.00,VWS V13.01,2013-01-24 10:47:00,
2013-01-24 04:52:00,44.8,32.5,30.22,ENE,62,4.0,5.4,62,0.00,,,0.00,VWS V13.01,2013-01-24 10:52:00,
2013-01-24 04:57:00,45.5,32.4,30.22,ENE,73,3.6,3.6,60,0.00,,,0.00,VWS V13.01,2013-01-24 10:57:00,
2013-01-24 05:02:00,46.0,32.1,30.22,ENE,67,4.9,4.9,58,0.00,,,0.00,VWS V13.01,2013-01-24 11:02:00,
2013-01-24 05:07:00,46.2,32.2,30.22,ENE,68,3.6,3.6,58,0.00,,,0.00,VWS V13.01,2013-01-24 11:07:00,
2013-01-24 05:12:00,46.4,32.0,30.22,ENE,77,4.9,4.9,57,0.00,,,0.00,VWS V13.01,2013-01-24 11:12:00,
2013-01-24 05:17:00,46.4,32.0,30.22,ENE,59,7.6,7.6,57,0.00,,,0.00,VWS V13.01,2013-01-24 11:17:00,
2013-01-24 05:22:00,46.4,31.5,30.22,ESE,110,8.1,8.1,56,0.00,,,0.00,VWS V13.01,2013-01-24 11:22:00,
2013-01-24 05:27:00,46.2,31.8,30.22,NE,43,4.0,5.4,57,0.00,,,0.00,VWS V13.01,2013-01-24 11:27:00,
2013-01-24 05:32:00,46.2,30.9,30.22,NE,47,5.8,5.8,55,0.00,,,0.00,VWS V13.01,2013-01-24 11:32:00,
2013-01-24 05:37:00,46.2,30.9,30.22,NNE,27,6.3,7.6,55,0.00,,,0.00,VWS V13.01,2013-01-24 11:37:00,
2013-01-24 05:42:00,46.0,31.2,30.22,NE,52,3.6,5.8,56,0.00,,,0.00,VWS V13.01,2013-01-24 11:42:00,
2013-01-24 05:47:00,45.8,31.0,30.25,ENE,57,5.4,5.8,56,0.00,,,0.00,VWS V13.01,2013-01-24 11:47:00,
2013-01-24 05:52:00,45.8,30.6,30.25,NE,36,5.4,7.6,55,0.00,,,0.00,VWS V13.01,2013-01-24 11:52:00,
2013-01-24 05:57:00,45.8,30.6,30.25,ENE,59,5.8,5.8,55,0.00,,,0.00,VWS V13.01,2013-01-24 11:57:00,
2013-01-24 06:02:00,45.7,30.0,30.25,ENE,65,7.6,7.6,54,0.00,,,0.00,VWS V13.01,2013-01-24 12:02:00,
2013-01-24 06:07:00,45.7,30.0,30.25,ENE,70,6.3,8.7,54,0.00,,,0.00,VWS V13.01,2013-01-24 12:07:00,
2013-01-24 06:12:00,45.5,29.8,30.25,NE,44,5.4,7.6,54,0.00,,,0.00,VWS V13.01,2013-01-24 12:12:00,
2013-01-24 06:17:00,45.3,29.6,30.25,NE,50,7.6,7.6,54,0.00,,,0.00,VWS V13.01,2013-01-24 12:17:00,
2013-01-24 06:22:00,45.3,29.6,30.25,NE,48,5.4,5.4,54,0.00,,,0.00,VWS V13.01,2013-01-24 12:22:00,
2013-01-24 06:27:00,44.9,28.9,30.25,NE,53,8.1,8.3,53,0.00,,,0.00,VWS V13.01,2013-01-24 12:27:00,
2013-01-24 06:32:00,44.8,28.7,30.25,ENE,68,6.3,6.3,53,0.00,,,0.00,VWS V13.01,2013-01-24 12:32:00,
2013-01-24 06:37:00,44.8,28.7,30.25,NE,55,3.1,4.0,53,0.00,,,0.00,VWS V13.01,2013-01-24 12:37:00,
2013-01-24 06:42:00,44.6,28.5,30.25,ENE,72,6.3,6.3,53,0.00,,,0.00,VWS V13.01,2013-01-24 12:42:00,
2013-01-24 06:47:00,44.4,28.4,30.25,NE,46,4.9,5.4,53,0.00,,,0.00,VWS V13.01,2013-01-24 12:47:00,
2013-01-24 06:52:00,44.4,28.4,30.25,NE,45,8.1,8.1,53,0.00,,,0.00,VWS V13.01,2013-01-24 12:52:00,
2013-01-24 06:57:00,44.2,28.2,30.25,NE,53,4.9,7.6,53,0.00,,,0.00,VWS V13.01,2013-01-24 12:57:00,
2013-01-24 07:02:00,44.0,27.6,30.25,NE,42,5.8,8.7,52,0.00,,,0.00,VWS V13.01,2013-01-24 13:02:00,
2013-01-24 07:07:00,44.0,27.6,30.25,NE,40,6.3,6.3,52,0.00,,,0.00,VWS V13.01,2013-01-24 13:07:00,
2013-01-24 07:12:00,43.9,27.4,30.25,NE,56,6.3,6.3,52,0.00,,,0.00,VWS V13.01,2013-01-24 13:12:00,
2013-01-24 07:17:00,43.9,27.4,30.28,NE,52,5.8,5.8,52,0.00,,,0.00,VWS V13.01,2013-01-24 13:17:00,
2013-01-24 07:22:00,43.7,27.2,30.28,ENE,76,5.4,5.4,52,0.00,,,0.00,VWS V13.01,2013-01-24 13:22:00,
2013-01-24 07:27:00,43.5,27.1,30.28,NE,43,6.3,6.3,52,0.00,,,0.00,VWS V13.01,2013-01-24 13:27:00,
2013-01-24 07:32:00,43.5,27.1,30.28,ENE,61,4.0,4.0,52,0.00,,,0.00,VWS V13.01,2013-01-24 13:32:00,
2013-01-24 07:37:00,43.5,26.6,30.28,ENE,75,6.3,6.3,51,0.00,,,0.00,VWS V13.01,2013-01-24 13:37:00,
2013-01-24 07:42:00,43.3,25.5,30.28,East,86,8.3,8.3,49,0.00,,,0.00,VWS V13.01,2013-01-24 13:42:00,
2013-01-24 07:47:00,43.3,25.5,30.28,ENE,64,5.4,5.4,49,0.00,,,0.00,VWS V13.01,2013-01-24 13:47:00,
2013-01-24 07:52:00,43.1,24.8,30.28,ENE,60,5.4,5.8,48,0.00,,,0.00,VWS V13.01,2013-01-24 13:52:00,
2013-01-24 07:57:00,43.1,24.8,30.28,ENE,62,4.9,4.9,48,0.00,,,0.00,VWS V13.01,2013-01-24 13:57:00,
2013-01-24 08:02:00,43.0,24.6,30.28,NE,38,8.1,8.1,48,0.00,,,0.00,VWS V13.01,2013-01-24 14:02:00,
2013-01-24 08:07:00,43.0,24.6,30.28,ENE,67,5.4,5.4,48,0.00,,,0.00,VWS V13.01,2013-01-24 14:07:00,
2013-01-24 08:12:00,42.8,24.5,30.28,ENE,58,6.3,6.3,48,0.00,,,0.00,VWS V13.01,2013-01-24 14:12:00,
2013-01-24 08:17:00,42.8,24.5,30.28,East,90,8.7,8.7,48,0.00,,,0.00,VWS V13.01,2013-01-24 14:17:00,
2013-01-24 08:22:00,42.6,24.3,30.28,NE,36,8.1,8.3,48,0.00,,,0.00,VWS V13.01,2013-01-24 14:22:00,
2013-01-24 08:27:00,42.4,24.6,30.28,ENE,58,6.3,6.3,49,0.00,,,0.00,VWS V13.01,2013-01-24 14:27:00,
2013-01-24 08:32:00,42.4,24.6,30.31,ENE,65,6.3,9.6,49,0.00,,,0.00,VWS V13.01,2013-01-24 14:32:00,
2013-01-24 08:37:00,42.2,24.5,30.31,ENE,68,5.4,5.4,49,0.00,,,0.00,VWS V13.01,2013-01-24 14:37:00,
2013-01-24 08:42:00,42.1,24.3,30.31,NE,38,8.7,10.1,49,0.00,,,0.00,VWS V13.01,2013-01-24 14:42:00,
2013-01-24 08:47:00,42.1,24.3,30.31,NE,47,8.7,8.7,49,0.00,,,0.00,VWS V13.01,2013-01-24 14:47:00,
2013-01-24 08:52:00,42.1,24.3,30.31,ENE,72,8.1,8.1,49,0.00,,,0.00,VWS V13.01,2013-01-24 14:52:00,
2013-01-24 08:57:00,42.1,24.3,30.31,NE,40,6.3,8.3,49,0.00,,,0.00,VWS V13.01,2013-01-24 14:57:00,
2013-01-24 09:02:00,42.1,24.3,30.31,ENE,72,6.3,7.6,49,0.00,,,0.00,VWS V13.01,2013-01-24 15:02:00,
2013-01-24 09:07:00,42.1,24.3,30.31,NE,54,7.6,9.6,49,0.00,,,0.00,VWS V13.01,2013-01-24 15:07:00,
2013-01-24 09:12:00,41.9,24.1,30.31,NE,50,8.3,11.0,49,0.00,,,0.00,VWS V13.01,2013-01-24 15:12:00,
2013-01-24 09:17:00,41.9,24.1,30.31,NE,41,5.4,8.3,49,0.00,,,0.00,VWS V13.01,2013-01-24 15:17:00,
2013-01-24 09:22:00,41.7,24.0,30.31,NE,38,11.0,15.4,49,0.00,,,0.00,VWS V13.01,2013-01-24 15:22:00,
2013-01-24 09:27:00,41.7,24.0,30.31,NE,41,11.0,11.0,49,0.00,,,0.00,VWS V13.01,2013-01-24 15:27:00,
2013-01-24 09:32:00,41.7,24.0,30.31,ENE,72,7.6,16.8,49,0.00,,,0.00,VWS V13.01,2013-01-24 15:32:00,
2013-01-24 09:37:00,41.7,24.0,30.31,NE,55,8.1,13.2,49,0.00,,,0.00,VWS V13.01,2013-01-24 15:37:00,
2013-01-24 09:42:00,41.7,24.0,30.31,ENE,76,7.6,8.7,49,0.00,,,0.00,VWS V13.01,2013-01-24 15:42:00,
2013-01-24 09:46:00,41.7,24.0,30.31,NE,42,8.7,8.7,49,0.00,,,0.00,VWS V13.01,2013-01-24 15:46:00,
2013-01-24 09:51:00,41.9,24.1,30.31,ENE,61,6.3,8.7,49,0.00,,,0.00,VWS V13.01,2013-01-24 15:51:00,
2013-01-24 09:56:00,42.1,23.8,30.31,East,83,10.1,10.1,48,0.00,,,0.00,VWS V13.01,2013-01-24 15:56:00,
2013-01-24 10:01:00,42.2,24.0,30.34,ENE,72,5.4,5.8,48,0.00,,,0.00,VWS V13.01,2013-01-24 16:01:00,
2013-01-24 10:06:00,42.2,24.0,30.34,NE,50,4.9,5.8,48,0.00,,,0.00,VWS V13.01,2013-01-24 16:06:00,
2013-01-24 10:11:00,42.1,23.8,30.34,ENE,66,6.3,8.1,48,0.00,,,0.00,VWS V13.01,2013-01-24 16:11:00,
2013-01-24 10:16:00,42.1,23.8,30.34,NE,52,6.3,8.7,48,0.00,,,0.00,VWS V13.01,2013-01-24 16:16:00,
2013-01-24 10:21:00,42.1,23.8,30.34,ENE,75,6.3,6.3,48,0.00,,,0.00,VWS V13.01,2013-01-24 16:21:00,
2013-01-24 10:26:00,42.1,23.8,30.34,East,101,10.5,10.5,48,0.00,,,0.00,VWS V13.01,2013-01-24 16:26:00,
2013-01-24 10:31:00,41.9,23.6,30.34,East,94,12.3,12.3,48,0.00,,,0.00,VWS V13.01,2013-01-24 16:31:00,
2013-01-24 10:36:00,41.7,23.5,30.34,ENE,71,5.8,7.6,48,0.00,,,0.00,VWS V13.01,2013-01-24 16:36:00,
2013-01-24 10:41:00,41.7,23.5,30.34,NE,50,5.8,10.5,48,0.00,,,0.00,VWS V13.01,2013-01-24 16:41:00,
2013-01-24 10:46:00,41.9,23.6,30.34,NNE,21,4.9,6.3,48,0.00,,,0.00,VWS V13.01,2013-01-24 16:46:00,
2013-01-24 10:51:00,42.1,23.8,30.34,East,79,5.4,6.7,48,0.00,,,0.00,VWS V13.01,2013-01-24 16:51:00,
2013-01-24 10:56:00,41.9,23.6,30.34,NE,54,5.4,5.8,48,0.00,,,0.00,VWS V13.01,2013-01-24 16:56:00,
2013-01-24 11:01:00,41.5,23.3,30.34,ESE,121,8.7,8.7,48,0.00,,,0.00,VWS V13.01,2013-01-24 17:01:00,
2013-01-24 11:06:00,41.3,23.1,30.34,ENE,69,7.6,7.6,48,0.00,,,0.00,VWS V13.01,2013-01-24 17:06:00,
2013-01-24 11:11:00,41.2,23.0,30.34,East,92,6.3,8.3,48,0.00,,,0.00,VWS V13.01,2013-01-24 17:11:00,
2013-01-24 11:16:00,41.0,22.8,30.31,ENE,76,8.3,15.0,48,0.00,,,0.00,VWS V13.01,2013-01-24 17:16:00,
2013-01-24 11:21:00,40.8,22.6,30.31,ENE,74,8.3,13.6,48,0.00,,,0.00,VWS V13.01,2013-01-24 17:21:00,
2013-01-24 11:26:00,40.8,22.6,30.31,ENE,76,8.1,12.8,48,0.00,,,0.00,VWS V13.01,2013-01-24 17:26:00,
2013-01-24 11:31:00,40.8,22.6,30.31,ENE,63,5.8,5.8,48,0.00,,,0.00,VWS V13.01,2013-01-24 17:31:00,
2013-01-24 11:36:00,41.0,22.8,30.31,East,94,12.3,12.3,48,0.00,,,0.00,VWS V13.01,2013-01-24 17:36:00,
2013-01-24 11:41:00,40.8,22.6,30.31,East,95,6.3,8.7,48,0.00,,,0.00,VWS V13.01,2013-01-24 17:41:00,
2013-01-24 11:46:00,41.2,23.0,30.31,East,84,7.6,8.1,48,0.00,,,0.00,VWS V13.01,2013-01-24 17:46:00,
2013-01-24 11:51:00,41.0,22.8,30.31,East,80,10.1,12.3,48,0.00,,,0.00,VWS V13.01,2013-01-24 17:51:00,
2013-01-24 11:56:00,40.8,22.6,30.31,East,81,13.2,13.2,48,0.00,,,0.00,VWS V13.01,2013-01-24 17:56:00,
2013-01-24 12:01:00,40.8,22.6,30.31,East,92,5.8,8.7,48,0.00,,,0.00,VWS V13.01,2013-01-24 18:01:00,
2013-01-24 12:06:00,40.8,22.6,30.31,ENE,71,10.1,10.5,48,0.00,,,0.00,VWS V13.01,2013-01-24 18:06:00,
2013-01-24 12:11:00,41.0,22.8,30.31,ENE,61,7.6,7.6,48,0.00,,,0.00,VWS V13.01,2013-01-24 18:11:00,
2013-01-24 12:16:00,41.0,22.8,30.28,NE,56,3.1,5.8,48,0.00,,,0.00,VWS V13.01,2013-01-24 18:16:00,
2013-01-24 12:21:00,41.0,22.8,30.28,ENE,73,7.6,12.8,48,0.00,,,0.00,VWS V13.01,2013-01-24 18:21:00,
2013-01-24 12:26:00,41.0,22.8,30.28,ENE,62,10.1,10.1,48,0.00,,,0.00,VWS V13.01,2013-01-24 18:26:00,
2013-01-24 12:31:00,41.0,22.8,30.28,ENE,76,6.3,6.3,48,0.00,,,0.00,VWS V13.01,2013-01-24 18:31:00,
2013-01-24 12:36:00,41.0,22.8,30.28,NE,56,8.1,11.0,48,0.00,,,0.00,VWS V13.01,2013-01-24 18:36:00,
2013-01-24 12:41:00,40.8,22.6,30.28,ENE,61,10.5,15.0,48,0.00,,,0.00,VWS V13.01,2013-01-24 18:41:00,
2013-01-24 12:46:00,40.6,22.5,30.28,NE,35,3.1,10.5,48,0.00,,,0.00,VWS V13.01,2013-01-24 18:46:00,
2013-01-24 12:51:00,40.6,22.5,30.28,NNE,25,8.1,12.8,48,0.00,,,0.00,VWS V13.01,2013-01-24 18:51:00,
2013-01-24 12:56:00,40.4,22.3,30.28,East,97,8.3,8.3,48,0.00,,,0.00,VWS V13.01,2013-01-24 18:56:00,
2013-01-24 13:01:00,40.3,22.1,30.28,NE,44,8.3,10.5,48,0.00,,,0.00,VWS V13.01,2013-01-24 19:01:00,
2013-01-24 13:06:00,40.1,22.0,30.28,ENE,73,8.7,10.1,48,0.00,,,0.00,VWS V13.01,2013-01-24 19:06:00,
2013-01-24 13:11:00,40.1,22.0,30.28,NNE,22,6.3,6.3,48,0.00,,,0.00,VWS V13.01,2013-01-24 19:11:00,
2013-01-24 13:16:00,40.3,22.1,30.28,NE,48,8.7,8.7,48,0.00,,,0.00,VWS V13.01,2013-01-24 19:16:00,
2013-01-24 13:21:00,40.3,22.1,30.28,ENE,71,8.1,8.7,48,0.00,,,0.00,VWS V13.01,2013-01-24 19:21:00,
2013-01-24 13:26:00,40.3,22.1,30.28,NE,35,8.7,8.7,48,0.00,,,0.00,VWS V13.01,2013-01-24 19:26:00,
2013-01-24 13:31:00,40.3,22.1,30.25,ENE,74,7.6,7.6,48,0.00,,,0.00,VWS V13.01,2013-01-24 19:31:00,
2013-01-24 13:36:00,40.3,22.1,30.25,ENE,70,11.0,12.8,48,0.00,,,0.00,VWS V13.01,2013-01-24 19:36:00,
2013-01-24 13:41:00,40.3,22.1,30.25,NE,54,5.4,8.1,48,0.00,,,0.00,VWS V13.01,2013-01-24 19:41:00,
2013-01-24 13:46:00,40.3,22.1,30.28,ENE,69,8.3,11.0,48,0.00,,,0.00,VWS V13.01,2013-01-24 19:46:00,
2013-01-24 13:51:00,40.3,21.1,30.28,East,80,13.6,13.6,46,0.00,,,0.00,VWS V13.01,2013-01-24 19:51:00,
2013-01-24 13:56:00,40.3,21.1,30.28,ENE,61,5.8,6.3,46,0.00,,,0.00,VWS V13.01,2013-01-24 19:56:00,
2013-01-24 14:01:00,40.4,21.3,30.28,ESE,103,6.3,8.1,46,0.00,,,0.00,VWS V13.01,2013-01-24 20:01:00,
2013-01-24 14:06:00,40.3,21.1,30.28,ESE,120,6.3,8.1,46,0.00,,,0.00,VWS V13.01,2013-01-24 20:06:00,
2013-01-24 14:11:00,40.1,21.0,30.28,ENE,71,8.1,10.1,46,0.00,,,0.00,VWS V13.01,2013-01-24 20:11:00,
2013-01-24 14:16:00,40.1,21.0,30.28,ESE,102,5.8,8.1,46,0.00,,,0.00,VWS V13.01,2013-01-24 20:16:00,
2013-01-24 14:21:00,39.7,20.6,30.28,East,88,3.1,7.2,46,0.00,,,0.00,VWS V13.01,2013-01-24 20:21:00,
2013-01-24 14:26:00,39.5,21.5,30.28,ENE,73,13.2,13.2,48,0.00,,,0.00,VWS V13.01,2013-01-24 20:26:00,
2013-01-24 14:31:00,39.5,20.5,30.28,ESE,111,10.5,10.5,46,0.00,,,0.00,VWS V13.01,2013-01-24 20:31:00,
2013-01-24 14:36:00,39.5,20.5,30.28,East,96,6.3,8.7,46,0.00,,,0.00,VWS V13.01,2013-01-24 20:36:00,
2013-01-24 14:41:00,39.2,20.2,30.28,ENE,71,4.0,4.9,46,0.00,,,0.00,VWS V13.01,2013-01-24 20:41:00,
2013-01-24 14:46:00,39.0,20.0,30.28,East,89,8.1,10.1,46,0.00,,,0.00,VWS V13.01,2013-01-24 20:46:00,
2013-01-24 14:51:00,39.0,20.0,30.28,East,85,8.3,8.3,46,0.00,,,0.00,VWS V13.01,2013-01-24 20:51:00,
2013-01-24 14:56:00,38.8,19.8,30.28,East,100,6.3,6.3,46,0.00,,,0.00,VWS V13.01,2013-01-24 20:56:00,
2013-01-24 15:01:00,38.8,19.8,30.28,ESE,104,8.3,10.1,46,0.00,,,0.00,VWS V13.01,2013-01-24 21:01:00,
2013-01-24 15:06:00,38.8,19.8,30.28,ESE,112,6.3,8.3,46,0.00,,,0.00,VWS V13.01,2013-01-24 21:06:00,
2013-01-24 15:11:00,38.6,19.7,30.28,East,79,13.2,13.2,46,0.00,,,0.00,VWS V13.01,2013-01-24 21:11:00,
2013-01-24 15:16:00,38.5,19.5,30.25,SE,128,6.3,10.1,46,0.00,,,0.00,VWS V13.01,2013-01-24 21:16:00,
2013-01-24 15:21:00,38.5,19.5,30.25,NE,52,7.2,7.2,46,0.00,,,0.00,VWS V13.01,2013-01-24 21:21:00,
2013-01-24 15:26:00,38.5,19.5,30.25,NE,55,5.8,5.8,46,0.00,,,0.00,VWS V13.01,2013-01-24 21:26:00,
2013-01-24 15:31:00,38.3,19.3,30.25,ENE,78,5.4,7.6,46,0.00,,,0.00,VWS V13.01,2013-01-24 21:31:00,
2013-01-24 15:36:00,38.1,19.2,30.25,ENE,73,15.4,15.4,46,0.00,,,0.00,VWS V13.01,2013-01-24 21:36:00,
2013-01-24 15:41:00,37.9,19.0,30.25,NNE,27,10.5,10.5,46,0.00,,,0.00,VWS V13.01,2013-01-24 21:41:00,
2013-01-24 15:46:00,37.7,18.8,30.28,NE,49,8.1,8.1,46,0.00,,,0.00,VWS V13.01,2013-01-24 21:46:00,
2013-01-24 15:51:00,37.6,18.7,30.28,ENE,76,5.4,5.4,46,0.00,,,0.00,VWS V13.01,2013-01-24 21:51:00,
2013-01-24 15:56:00,37.4,18.5,30.28,ENE,77,6.7,6.7,46,0.00,,,0.00,VWS V13.01,2013-01-24 21:56:00,
2013-01-24 16:01:00,37.4,18.5,30.28,East,98,6.3,6.3,46,0.00,,,0.00,VWS V13.01,2013-01-24 22:01:00,
2013-01-24 16:06:00,37.2,18.3,30.28,ENE,77,4.5,6.7,46,0.00,,,0.00,VWS V13.01,2013-01-24 22:06:00,
2013-01-24 16:11:00,37.2,18.3,30.28,ENE,67,5.8,5.8,46,0.00,,,0.00,VWS V13.01,2013-01-24 22:11:00,
2013-01-24 16:16:00,37.0,18.2,30.28,ENE,64,10.1,10.1,46,0.00,,,0.00,VWS V13.01,2013-01-24 22:16:00,
2013-01-24 16:21:00,36.8,19.5,30.28,ENE,68,5.4,8.1,49,0.00,,,0.00,VWS V13.01,2013-01-24 22:21:00,
2013-01-24 16:26:00,36.8,19.5,30.28,East,80,8.3,10.5,49,0.00,,,0.00,VWS V13.01,2013-01-24 22:26:00,
2013-01-24 16:31:00,36.7,19.3,30.28,ENE,63,5.4,8.7,49,0.00,,,0.00,VWS V13.01,2013-01-24 22:31:00,
2013-01-24 16:36:00,36.3,19.0,30.28,ENE,62,10.1,10.1,49,0.00,,,0.00,VWS V13.01,2013-01-24 22:36:00,
2013-01-24 16:41:00,36.1,18.8,30.28,ENE,68,10.1,10.1,49,0.00,,,0.00,VWS V13.01,2013-01-24 22:41:00,
2013-01-24 16:46:00,35.9,18.6,30.28,ENE,61,8.1,10.1,49,0.00,,,0.00,VWS V13.01,2013-01-24 22:46:00,
2013-01-24 16:51:00,35.6,18.3,30.28,ESE,104,5.4,5.8,49,0.00,,,0.00,VWS V13.01,2013-01-24 22:51:00,
2013-01-24 16:56:00,35.6,18.3,30.28,East,95,8.3,8.3,49,0.00,,,0.00,VWS V13.01,2013-01-24 22:56:00,
2013-01-24 17:01:00,35.4,18.1,30.28,ENE,62,4.9,8.3,49,0.00,,,0.00,VWS V13.01,2013-01-24 23:01:00,
2013-01-24 17:06:00,35.4,18.1,30.28,NE,55,5.8,5.8,49,0.00,,,0.00,VWS V13.01,2013-01-24 23:06:00,
2013-01-24 17:11:00,35.2,18.0,30.28,East,98,5.4,5.4,49,0.00,,,0.00,VWS V13.01,2013-01-24 23:11:00,
2013-01-24 17:16:00,35.0,17.8,30.28,East,79,4.0,8.7,49,0.00,,,0.00,VWS V13.01,2013-01-24 23:16:00,
2013-01-24 17:21:00,35.0,17.8,30.28,NE,56,5.8,5.8,49,0.00,,,0.00,VWS V13.01,2013-01-24 23:21:00,
2013-01-24 17:26:00,34.9,16.7,30.28,ENE,72,6.7,6.7,47,0.00,,,0.00,VWS V13.01,2013-01-24 23:26:00,
2013-01-24 17:30:00,34.7,16.5,30.28,ENE,73,5.8,7.6,47,0.00,,,0.00,VWS V13.01,2013-01-24 23:30:00,
2013-01-24 17:35:00,34.5,16.4,30.28,ENE,60,5.8,5.8,47,0.00,,,0.00,VWS V13.01,2013-01-24 23:35:00,
2013-01-24 17:40:00,34.5,16.4,30.28,ENE,70,6.3,6.3,47,0.00,,,0.00,VWS V13.01,2013-01-24 23:40:00,
2013-01-24 17:45:00,34.5,16.4,30.28,ESE,105,10.1,10.1,47,0.00,,,0.00,VWS V13.01,2013-01-24 23:45:00,
2013-01-24 17:50:00,34.3,16.2,30.28,NE,37,4.0,4.0,47,0.00,,,0.00,VWS V13.01,2013-01-24 23:50:00,
2013-01-24 17:55:00,34.3,17.2,30.28,ENE,63,2.7,3.1,49,0.00,,,0.00,VWS V13.01,2013-01-24 23:55:00,
2013-01-24 18:00:00,34.3,16.2,30.28,SE,124,5.4,10.5,47,0.00,,,0.00,VWS V13.01,2013-01-25 00:00:00,
2013-01-24 18:05:00,34.1,16.0,30.28,NE,56,7.6,8.1,47,0.00,,,0.00,VWS V13.01,2013-01-25 00:05:00,
2013-01-24 18:10:00,34.0,16.8,30.28,NE,40,7.2,7.2,49,0.00,,,0.00,VWS V13.01,2013-01-25 00:10:00,
2013-01-24 18:15:00,33.8,16.7,30.28,East,93,10.5,10.5,49,0.00,,,0.00,VWS V13.01,2013-01-25 00:15:00,
2013-01-24 18:20:00,33.6,16.5,30.28,ENE,76,8.3,10.1,49,0.00,,,0.00,VWS V13.01,2013-01-25 00:20:00,
2013-01-24 18:25:00,33.6,16.5,30.28,East,101,6.3,8.7,49,0.00,,,0.00,VWS V13.01,2013-01-25 00:25:00,
2013-01-24 18:30:00,33.4,16.8,30.28,NE,55,10.5,10.5,50,0.00,,,0.00,VWS V13.01,2013-01-25 00:30:00,
2013-01-24 18:35:00,33.4,16.8,30.28,East,94,8.7,10.5,50,0.00,,,0.00,VWS V13.01,2013-01-25 00:35:00,
2013-01-24 18:40:00,33.2,16.6,30.28,East,82,5.8,5.8,50,0.00,,,0.00,VWS V13.01,2013-01-25 00:40:00,
2013-01-24 18:45:00,33.1,16.5,30.28,East,84,3.6,6.3,50,0.00,,,0.00,VWS V13.01,2013-01-25 00:45:00,
2013-01-24 18:50:00,33.1,16.9,30.28,ENE,69,7.6,8.7,51,0.00,,,0.00,VWS V13.01,2013-01-25 00:50:00,
2013-01-24 18:55:00,33.1,16.9,30.28,ESE,108,4.5,7.6,51,0.00,,,0.00,VWS V13.01,2013-01-25 00:55:00,
2013-01-24 19:00:00,33.1,16.9,30.28,ESE,108,4.9,7.6,51,0.00,,,0.00,VWS V13.01,2013-01-25 01:00:00,
2013-01-24 19:05:00,32.9,16.8,30.28,ENE,64,6.3,6.7,51,0.00,,,0.00,VWS V13.01,2013-01-25 01:05:00,
2013-01-24 19:10:00,32.5,16.9,30.28,East,86,7.6,7.6,52,0.00,,,0.00,VWS V13.01,2013-01-25 01:10:00,
2013-01-24 19:15:00,32.3,16.7,30.25,ENE,74,5.8,15.0,52,0.00,,,0.00,VWS V13.01,2013-01-25 01:15:00,
2013-01-24 19:20:00,32.2,17.0,30.25,East,80,10.1,11.4,53,0.00,,,0.00,VWS V13.01,2013-01-25 01:20:00,
2013-01-24 19:25:00,32.0,16.8,30.25,East,91,10.5,10.5,53,0.00,,,0.00,VWS V13.01,2013-01-25 01:25:00,
2013-01-24 19:30:00,32.0,16.8,30.25,ESE,109,7.6,7.6,53,0.00,,,0.00,VWS V13.01,2013-01-25 01:30:00,
2013-01-24 19:35:00,32.0,16.8,30.25,ESE,104,4.9,8.1,53,0.00,,,0.00,VWS V13.01,2013-01-25 01:35:00,
2013-01-24 19:40:00,31.8,17.1,30.25,East,81,8.1,8.3,54,0.00,,,0.00,VWS V13.01,2013-01-25 01:40:00,
2013-01-24 19:45:00,31.6,17.3,30.22,East,96,6.3,8.1,55,0.00,,,0.00,VWS V13.01,2013-01-25 01:45:00,
2013-01-24 19:50:00,31.6,17.7,30.22,East,91,7.6,7.6,56,0.00,,,0.00,VWS V13.01,2013-01-25 01:50:00,
2013-01-24 19:55:00,31.4,17.6,30.22,ENE,60,8.1,11.0,56,0.00,,,0.00,VWS V13.01,2013-01-25 01:55:00,
2013-01-24 20:00:00,31.4,17.6,30.22,ENE,67,8.3,10.1,56,0.00,,,0.00,VWS V13.01,2013-01-25 02:00:00,
2013-01-24 20:05:00,31.4,17.6,30.22,ENE,63,9.6,9.6,56,0.00,,,0.00,VWS V13.01,2013-01-25 02:05:00,
2013-01-24 20:10:00,31.3,17.4,30.22,East,88,7.2,8.7,56,0.00,,,0.00,VWS V13.01,2013-01-25 02:10:00,
2013-01-24 20:15:00,31.3,17.4,30.22,ENE,70,5.8,8.7,56,0.00,,,0.00,VWS V13.01,2013-01-25 02:15:00,
2013-01-24 20:20:00,31.3,17.8,30.22,NE,40,6.3,6.3,57,0.00,,,0.00,VWS V13.01,2013-01-25 02:20:00,
2013-01-24 20:25:00,31.3,17.8,30.22,NE,55,6.3,8.3,57,0.00,,,0.00,VWS V13.01,2013-01-25 02:25:00,
2013-01-24 20:30:00,31.3,18.2,30.22,East,79,5.4,5.4,58,0.00,,,0.00,VWS V13.01,2013-01-25 02:30:00,
2013-01-24 20:35:00,31.3,18.2,30.22,NE,50,5.8,5.8,58,0.00,,,0.00,VWS V13.01,2013-01-25 02:35:00,
2013-01-24 20:40:00,31.3,18.2,30.22,NE,56,3.6,5.8,58,0.00,,,0.00,VWS V13.01,2013-01-25 02:40:00,
2013-01-24 20:45:00,31.3,18.2,30.22,NE,37,4.9,5.8,58,0.00,,,0.00,VWS V13.01,2013-01-25 02:45:00,
2013-01-24 20:50:00,31.1,18.0,30.22,NE,40,5.8,5.8,58,0.00,,,0.00,VWS V13.01,2013-01-25 02:50:00,
2013-01-24 20:55:00,31.1,18.4,30.22,East,80,4.5,4.9,59,0.00,,,0.00,VWS V13.01,2013-01-25 02:55:00,
2013-01-24 21:00:00,31.1,18.8,30.22,East,91,3.6,3.6,60,0.00,,,0.00,VWS V13.01,2013-01-25 03:00:00,
2013-01-24 21:05:00,31.1,18.8,30.22,ENE,69,4.0,4.0,60,0.00,,,0.00,VWS V13.01,2013-01-25 03:05:00,
2013-01-24 21:10:00,31.1,18.8,30.22,NE,36,4.5,4.9,60,0.00,,,0.00,VWS V13.01,2013-01-25 03:10:00,
2013-01-24 21:15:00,31.1,18.4,30.22,NE,45,6.7,6.7,59,0.00,,,0.00,VWS V13.01,2013-01-25 03:15:00,
2013-01-24 21:20:00,31.1,18.4,30.22,NE,55,4.9,6.3,59,0.00,,,0.00,VWS V13.01,2013-01-25 03:20:00,
2013-01-24 21:25:00,31.1,18.8,30.22,ENE,65,5.8,5.8,60,0.00,,,0.00,VWS V13.01,2013-01-25 03:25:00,
2013-01-24 21:30:00,31.1,18.8,30.22,NE,53,6.3,6.3,60,0.00,,,0.00,VWS V13.01,2013-01-25 03:30:00,
2013-01-24 21:35:00,30.9,18.7,30.22,ENE,57,4.9,8.3,60,0.00,,,0.00,VWS V13.01,2013-01-25 03:35:00,
2013-01-24 21:40:00,30.9,18.7,30.22,ENE,66,3.6,5.4,60,0.00,,,0.00,VWS V13.01,2013-01-25 03:40:00,
2013-01-24 21:45:00,30.9,18.7,30.22,ENE,57,6.3,8.1,60,0.00,,,0.00,VWS V13.01,2013-01-25 03:45:00,
2013-01-24 21:50:00,30.9,18.7,30.22,East,98,8.7,8.7,60,0.00,,,0.00,VWS V13.01,2013-01-25 03:50:00,
2013-01-24 21:55:00,30.9,18.7,30.22,East,84,8.1,9.6,60,0.00,,,0.00,VWS V13.01,2013-01-25 03:55:00,
2013-01-24 22:00:00,30.9,19.0,30.22,ENE,58,3.6,6.3,61,0.00,,,0.00,VWS V13.01,2013-01-25 04:00:00,
2013-01-24 22:05:00,30.7,18.9,30.22,ENE,75,6.3,6.3,61,0.00,,,0.00,VWS V13.01,2013-01-25 04:05:00,
2013-01-24 22:10:00,30.7,18.9,30.22,NE,46,8.1,8.1,61,0.00,,,0.00,VWS V13.01,2013-01-25 04:10:00,
2013-01-24 22:15:00,30.7,19.3,30.22,NE,37,5.8,8.3,62,0.00,,,0.00,VWS V13.01,2013-01-25 04:15:00,
2013-01-24 22:20:00,30.7,19.3,30.22,East,94,4.9,8.3,62,0.00,,,0.00,VWS V13.01,2013-01-25 04:20:00,
2013-01-24 22:25:00,30.7,19.6,30.22,NE,55,5.4,6.3,63,0.00,,,0.00,VWS V13.01,2013-01-25 04:25:00,
2013-01-24 22:30:00,30.5,19.8,30.22,ENE,59,5.8,5.8,64,0.00,,,0.00,VWS V13.01,2013-01-25 04:30:00,
2013-01-24 22:35:00,30.5,19.5,30.22,ENE,58,5.4,8.7,63,0.00,,,0.00,VWS V13.01,2013-01-25 04:35:00,
2013-01-24 22:40:00,30.5,19.5,30.22,East,81,5.4,6.3,63,0.00,,,0.00,VWS V13.01,2013-01-25 04:40:00,
2013-01-24 22:45:00,30.5,19.8,30.19,ESE,114,8.1,8.1,64,0.00,,,0.00,VWS V13.01,2013-01-25 04:45:00,
2013-01-24 22:50:00,30.4,19.7,30.19,ENE,75,8.7,8.7,64,0.00,,,0.00,VWS V13.01,2013-01-25 04:50:00,
2013-01-24 22:55:00,30.4,20.0,30.19,East,88,5.4,7.6,65,0.00,,,0.00,VWS V13.01,2013-01-25 04:55:00,
2013-01-24 23:01:00,30.4,19.7,30.19,NE,50,4.9,4.9,64,0.00,,,0.00,VWS V13.01,2013-01-25 05:01:00,
2013-01-24 23:03:00,30.4,19.7,30.19,ENE,78,8.3,8.3,64,0.00,,,0.00,VWS V13.01,2013-01-25 05:03:00,
2013-01-24 23:08:00,30.2,19.9,30.19,ENE,57,6.3,6.3,65,0.00,,,0.00,VWS V13.01,2013-01-25 05:08:00,
2013-01-24 23:13:00,30.2,19.9,30.19,ENE,75,5.4,8.1,65,0.00,,,0.00,VWS V13.01,2013-01-25 05:13:00,
2013-01-24 23:18:00,30.2,20.2,30.19,ENE,64,5.4,5.8,66,0.00,,,0.00,VWS V13.01,2013-01-25 05:18:00,
2013-01-24 23:23:00,30.0,20.0,30.19,East,81,5.8,8.7,66,0.00,,,0.00,VWS V13.01,2013-01-25 05:23:00,
2013-01-24 23:28:00,30.0,20.0,30.16,ESE,107,4.9,6.3,66,0.00,,,0.00,VWS V13.01,2013-01-25 05:28:00,
2013-01-24 23:33:00,30.0,20.0,30.16,NE,53,4.0,4.0,66,0.00,,,0.00,VWS V13.01,2013-01-25 05:33:00,
2013-01-24 23:38:00,30.0,20.0,30.16,NE,44,6.3,6.3,66,0.00,,,0.00,VWS V13.01,2013-01-25 05:38:00,
2013-01-24 23:43:00,30.0,20.0,30.16,NNE,24,4.9,4.9,66,0.00,,,0.00,VWS V13.01,2013-01-25 05:43:00,
2013-01-24 23:48:00,30.0,20.0,30.16,NE,40,3.6,3.6,66,0.00,,,0.00,VWS V13.01,2013-01-25 05:48:00,
2013-01-24 23:53:00,30.0,20.0,30.16,NE,55,3.6,4.0,66,0.00,,,0.00,VWS V13.01,2013-01-25 05:53:00,
2013-01-24 23:58:00,29.8,19.9,30.16,NNE,27,5.4,5.4,66,0.00,,,0.00,VWS V13.01,2013-01-25 05:58:00,